Time;durP1;ratioP1;P1;durP2;ratioP2;P2;SDS_P1;SDS_P2;PMS_P1;PMS_P2;Temp;Humidity;BMP_temperature;BMP_pressure;BME280_temperature;BME280_humidity;BME280_pressure;Samples;Min_cycle;Max_cycle;Signal;HPM_P1;HPM_P2
2021/12/07 00:00:43;;;;;;;33.25;15.05;;;;;;;-2.25;87.35;98018.78;2567125;28;20524;-71
2021/12/07 00:02:01;;;;;;;31.77;13.90;;;;;;;-2.25;87.30;98008.53;2567373;28;20473;-71
2021/12/07 00:03:18;;;;;;;38.17;15.52;;;;;;;-2.26;87.15;98010.22;2567292;28;20081;-69
2021/12/07 00:04:35;;;;;;;40.53;15.63;;;;;;;-2.26;87.15;98005.06;2556368;29;20051;-69
2021/12/07 00:05:51;;;;;;;46.25;19.45;;;;;;;-2.15;87.11;98006.13;2561074;28;20057;-70
2021/12/07 00:07:07;;;;;;;48.75;20.15;;;;;;;-2.08;86.59;97999.38;2567258;28;20361;-69
2021/12/07 00:08:25;;;;;;;45.55;20.10;;;;;;;-2.08;86.28;98004.50;2567093;28;20047;-70
2021/12/07 00:09:45;;;;;;;44.38;19.92;;;;;;;-2.14;86.35;98001.88;2566863;28;20043;-70
2021/12/07 00:11:01;;;;;;;47.10;20.83;;;;;;;-2.18;86.53;98000.94;2567159;28;20532;-69
2021/12/07 00:12:18;;;;;;;44.22;19.65;;;;;;;-2.21;87.01;97998.34;2567139;28;20047;-71
2021/12/07 00:13:37;;;;;;;44.90;18.65;;;;;;;-2.25;87.28;97993.97;2566919;28;20074;-71
2021/12/07 00:15:00;;;;;;;42.83;18.55;;;;;;;-2.28;87.14;97986.25;2567001;28;20051;-68
2021/12/07 00:16:18;;;;;;;45.50;17.98;;;;;;;-2.31;87.60;97983.63;2566967;28;20057;-71
2021/12/07 00:17:35;;;;;;;43.05;18.15;;;;;;;-2.34;87.64;97978.47;2567139;28;20057;-70
2021/12/07 00:18:51;;;;;;;42.22;17.42;;;;;;;-2.35;87.85;97972.47;2566853;28;20066;-69
2021/12/07 00:20:10;;;;;;;44.47;18.05;;;;;;;-2.37;88.06;97979.28;2566971;28;20665;-70
2021/12/07 00:21:26;;;;;;;67.57;23.35;;;;;;;-2.39;88.11;97972.38;2567022;28;20513;-69
2021/12/07 00:22:44;;;;;;;65.47;25.10;;;;;;;-2.34;88.14;97973.34;2567002;28;20047;-69
2021/12/07 00:24:00;;;;;;;61.33;23.67;;;;;;;-2.21;87.94;97971.81;2567201;28;20054;-69
2021/12/07 00:25:16;;;;;;;61.13;23.42;;;;;;;-2.15;87.65;97980.47;2566883;28;20137;-70
2021/12/07 00:26:32;;;;;;;53.63;20.30;;;;;;;-2.06;87.04;97992.56;2567181;28;20519;-69
2021/12/07 00:27:47;;;;;;;48.17;17.98;;;;;;;-1.95;86.57;97994.44;2567142;28;20050;-69
2021/12/07 00:29:04;;;;;;;49.28;19.95;;;;;;;-1.78;86.05;97992.97;2567077;28;20050;-69
2021/12/07 00:30:20;;;;;;;61.97;24.00;;;;;;;-1.75;85.65;97997.28;2566852;28;20051;-69
2021/12/07 00:31:45;;;;;;;56.70;23.33;;;;;;;-1.73;85.30;98000.75;2567180;28;20122;-69
2021/12/07 00:33:51;;;;;;;54.72;22.98;;;;;;;-1.68;85.17;97998.25;2567214;28;20473;-70
2021/12/07 00:34:58;;;;;;;51.55;20.40;;;;;;;-1.73;85.05;97991.34;2553195;28;20043;-69
2021/12/07 00:36:14;;;;;;;53.63;22.17;;;;;;;-1.79;85.50;97992.97;2567182;28;20070;-70
2021/12/07 00:37:34;;;;;;;52.35;22.55;;;;;;;-1.87;85.68;97992.84;2566949;28;20055;-69
2021/12/07 00:38:49;;;;;;;52.33;23.38;;;;;;;-1.92;86.05;97984.22;2566653;28;20047;-69
2021/12/07 00:40:08;;;;;;;52.42;24.80;;;;;;;-2.00;86.21;97984.97;2566918;28;20469;-69
2021/12/07 00:41:24;;;;;;;51.22;22.00;;;;;;;-2.04;86.69;97979.78;2566753;28;20572;-70
2021/12/07 00:42:39;;;;;;;49.17;22.15;;;;;;;-2.08;86.71;97985.72;2567072;28;20050;-69
2021/12/07 00:43:56;;;;;;;53.50;22.45;;;;;;;-2.16;86.61;97981.31;2567085;28;20047;-69
2021/12/07 00:45:14;;;;;;;53.85;21.98;;;;;;;-2.20;87.09;97979.53;2566782;28;20055;-70
2021/12/07 00:46:30;;;;;;;46.75;20.50;;;;;;;-2.21;87.52;97982.06;2567081;28;20147;-69
2021/12/07 00:47:51;;;;;;;49.03;20.23;;;;;;;-2.21;87.77;97969.25;2566501;28;20059;-69
2021/12/07 00:49:06;;;;;;;46.67;19.85;;;;;;;-2.23;87.62;97976.94;2566892;28;20054;-69
2021/12/07 00:50:24;;;;;;;47.40;20.90;;;;;;;-2.23;87.65;97981.19;2566918;28;20054;-69
2021/12/07 00:51:40;;;;;;;49.97;20.55;;;;;;;-2.26;87.81;97969.19;2566874;28;20482;-69
2021/12/07 00:52:56;;;;;;;45.47;19.85;;;;;;;-2.25;88.15;97970.91;2566875;28;20226;-69
2021/12/07 00:54:14;;;;;;;50.28;21.83;;;;;;;-2.28;87.92;97966.59;2566851;28;20996;-70
2021/12/07 00:55:31;;;;;;;50.20;21.10;;;;;;;-2.28;88.21;97971.75;2567034;28;20046;-69
2021/12/07 00:56:47;;;;;;;47.42;20.40;;;;;;;-2.28;88.54;97970.84;2566803;28;20051;-69
2021/12/07 00:58:12;;;;;;;48.95;21.55;;;;;;;-2.29;88.47;97970.00;2568578;28;20498;-70
2021/12/07 00:59:30;;;;;;;54.95;22.90;;;;;;;-2.30;88.51;97962.28;2569101;28;20382;-70
2021/12/07 01:00:50;;;;;;;52.40;21.92;;;;;;;-2.31;88.77;97958.00;2568883;28;20077;-69
2021/12/07 01:02:05;;;;;;;52.40;22.15;;;;;;;-2.29;88.92;97956.31;2569242;28;20398;-69
2021/12/07 01:03:22;;;;;;;55.08;21.13;;;;;;;-2.29;88.86;97958.88;2569026;28;20181;-69
2021/12/07 01:04:37;;;;;;;52.67;21.05;;;;;;;-2.31;88.49;97952.88;2568758;28;20120;-69
2021/12/07 01:06:04;;;;;;;56.40;20.50;;;;;;;-2.30;88.61;97957.16;2568806;28;20422;-69
2021/12/07 01:07:54;;;;;;;49.22;20.27;;;;;;;-2.34;88.54;97951.09;2568758;28;20501;-69
2021/12/07 01:09:20;;;;;;;44.50;18.80;;;;;;;-2.30;88.59;97946.91;2568934;28;20078;-69
2021/12/07 01:24:49;;;;;;;39.40;17.48;;;;;;;-2.07;87.90;97949.81;2568501;28;20047;-71
2021/12/07 01:26:05;;;;;;;39.88;17.20;;;;;;;-2.05;87.93;97949.84;2568740;28;20042;-71
2021/12/07 01:27:21;;;;;;;46.92;18.67;;;;;;;-2.04;87.86;97951.56;2568453;28;20051;-71
2021/12/07 01:28:42;;;;;;;45.92;20.17;;;;;;;-2.01;87.72;97952.47;2568671;28;20062;-71
2021/12/07 01:30:17;;;;;;;46.65;18.75;;;;;;;-2.03;87.67;97946.44;2568555;28;20047;-71
2021/12/07 01:32:05;;;;;;;38.40;17.23;;;;;;;-2.05;87.63;97950.69;2568546;28;20070;-69
2021/12/07 01:33:33;;;;;;;44.00;17.10;;;;;;;-2.07;87.54;97946.38;2568243;28;20125;-69
2021/12/07 01:37:53;;;;;;;41.10;17.58;;;;;;;-2.11;87.46;97935.22;2568648;28;20170;-70
2021/12/07 01:47:32;;;;;;;36.65;15.13;;;;;;;-2.14;86.78;97924.91;2518311;29;20077;-69
2021/12/07 01:50:46;;;;;;;40.63;15.50;;;;;;;-2.07;86.16;97923.31;2518007;29;20092;-69
2021/12/07 01:52:23;;;;;;;39.40;16.25;;;;;;;-2.05;86.19;97931.88;2517882;29;20080;-70
2021/12/07 01:59:38;;;;;;;39.65;16.08;;;;;;;-2.01;86.06;97929.38;2567830;28;20051;-70
2021/12/07 02:00:57;;;;;;;39.78;15.85;;;;;;;-2.04;86.18;97925.91;2568335;28;20500;-70
2021/12/07 02:02:15;;;;;;;44.20;16.60;;;;;;;-2.06;86.30;97928.44;2568421;28;21061;-70
2021/12/07 02:03:31;;;;;;;37.38;15.75;;;;;;;-2.06;86.28;97923.31;2568211;28;21012;-70
2021/12/07 02:04:47;;;;;;;37.78;15.90;;;;;;;-2.02;86.12;97924.22;2568387;28;20065;-70
2021/12/07 02:06:03;;;;;;;38.08;15.77;;;;;;;-2.00;86.06;97923.41;2568073;28;20129;-70
2021/12/07 02:07:19;;;;;;;43.10;16.63;;;;;;;-2.01;86.02;97920.81;2568462;28;20058;-70
2021/12/07 02:08:34;;;;;;;41.65;16.25;;;;;;;-2.02;86.13;97911.41;2568038;28;20063;-70
2021/12/07 02:09:55;;;;;;;39.65;15.65;;;;;;;-2.01;86.21;97913.13;2567765;28;20054;-70
2021/12/07 02:11:10;;;;;;;33.28;14.85;;;;;;;-2.02;86.21;97906.25;2568425;28;20054;-70
2021/12/07 02:12:28;;;;;;;35.70;15.70;;;;;;;-2.02;86.29;97906.25;2568099;28;20058;-70
2021/12/07 02:15:03;;;;;;;38.65;16.65;;;;;;;-2.03;86.47;97897.69;2567681;28;20142;-70
2021/12/07 02:16:21;;;;;;;37.85;16.85;;;;;;;-2.03;86.46;97895.13;2568301;28;20417;-70
2021/12/07 02:17:37;;;;;;;37.40;15.82;;;;;;;-2.03;86.43;97889.16;2568039;28;20086;-70
2021/12/07 02:18:52;;;;;;;38.38;15.45;;;;;;;-2.05;86.46;97881.41;2568211;28;20051;-70
2021/12/07 02:20:10;;;;;;;36.30;16.58;;;;;;;-2.05;86.61;97886.56;2568064;28;20046;-70
2021/12/07 02:21:26;;;;;;;39.55;16.38;;;;;;;-2.05;86.80;97881.41;2568045;28;20054;-70
2021/12/07 02:22:42;;;;;;;38.45;16.67;;;;;;;-2.02;86.37;97884.06;2568142;28;20057;-70
2021/12/07 02:23:57;;;;;;;43.53;16.23;;;;;;;-1.94;86.36;97878.16;2568247;28;20409;-70
2021/12/07 02:25:15;;;;;;;39.13;17.15;;;;;;;-1.96;86.43;97879.84;2568010;28;20796;-70
2021/12/07 02:26:31;;;;;;;36.10;15.52;;;;;;;-1.99;86.22;97875.50;2568097;28;20051;-70
2021/12/07 02:27:49;;;;;;;37.25;15.05;;;;;;;-2.01;86.58;97867.81;2568208;28;20051;-70
2021/12/07 02:29:05;;;;;;;35.58;16.55;;;;;;;-2.00;86.42;97878.91;2567847;28;20055;-70
2021/12/07 02:30:23;;;;;;;38.08;16.10;;;;;;;-2.01;86.11;97882.34;2567899;28;20051;-70
2021/12/07 02:31:39;;;;;;;35.60;15.00;;;;;;;-2.02;86.60;97875.47;2567986;28;20069;-70
2021/12/07 02:32:55;;;;;;;41.55;16.85;;;;;;;-2.03;86.60;97868.63;2568201;28;20050;-70
2021/12/07 02:34:12;;;;;;;36.90;14.90;;;;;;;-2.04;86.58;97865.19;2568007;28;20057;-70
2021/12/07 02:35:28;;;;;;;35.50;15.07;;;;;;;-2.07;86.66;97862.59;2567911;28;20054;-70
2021/12/07 02:36:44;;;;;;;38.17;16.52;;;;;;;-2.10;86.79;97857.44;2568157;28;20582;-70
2021/12/07 02:38:00;;;;;;;37.30;15.30;;;;;;;-2.13;86.93;97858.25;2567742;28;20073;-70
2021/12/07 02:39:16;;;;;;;33.80;15.35;;;;;;;-2.13;87.02;97860.81;2567907;28;20054;-70
2021/12/07 02:40:32;;;;;;;36.60;14.82;;;;;;;-2.14;87.08;97866.78;2567818;28;20173;-70
2021/12/07 02:41:48;;;;;;;42.88;15.35;;;;;;;-2.17;87.13;97874.44;2567742;28;20526;-70
2021/12/07 02:43:03;;;;;;;37.58;15.07;;;;;;;-2.19;87.44;97875.25;2567779;28;20074;-70
2021/12/07 02:44:19;;;;;;;38.72;16.60;;;;;;;-2.19;87.37;97877.81;2567688;28;20086;-70
2021/12/07 02:45:35;;;;;;;35.35;15.13;;;;;;;-2.20;87.44;97871.84;2567731;28;20051;-70
2021/12/07 02:46:50;;;;;;;37.72;15.70;;;;;;;-2.16;87.38;97875.31;2566634;28;20074;-70
2021/12/07 02:48:06;;;;;;;39.58;15.88;;;;;;;-2.15;87.21;97877.03;2567368;28;20616;-70
2021/12/07 02:49:21;;;;;;;36.63;15.07;;;;;;;-2.13;86.84;97868.50;2567954;28;20050;-70
2021/12/07 02:50:37;;;;;;;35.95;15.23;;;;;;;-2.14;87.07;97871.91;2567798;28;20489;-70
2021/12/07 02:51:53;;;;;;;37.60;14.98;;;;;;;-2.05;86.93;97881.41;2567941;28;20074;-70
2021/12/07 02:53:09;;;;;;;35.83;15.93;;;;;;;-2.08;86.95;97881.38;2567954;28;20671;-70
2021/12/07 02:54:24;;;;;;;34.88;15.60;;;;;;;-2.14;86.96;97883.88;2567831;28;20055;-70
2021/12/07 02:55:40;;;;;;;36.55;15.30;;;;;;;-2.18;87.11;97879.53;2567727;28;20047;-70
2021/12/07 02:56:56;;;;;;;33.05;14.60;;;;;;;-2.24;87.49;97880.31;2568015;28;20520;-70
2021/12/07 02:58:11;;;;;;;32.58;14.82;;;;;;;-2.30;87.37;97885.34;2567871;28;20074;-70
2021/12/07 02:59:28;;;;;;;37.45;15.43;;;;;;;-2.36;87.35;97882.72;2567457;28;20059;-70
2021/12/07 03:00:52;;;;;;;40.20;16.23;;;;;;;-2.41;87.65;97880.09;2567825;28;20061;-70
2021/12/07 03:02:09;;;;;;;32.75;15.43;;;;;;;-2.44;87.58;97877.47;2567523;28;20063;-70
2021/12/07 03:03:26;;;;;;;39.35;16.17;;;;;;;-2.50;87.45;97878.25;2567669;28;20059;-70
2021/12/07 03:04:54;;;;;;;39.58;15.57;;;;;;;-2.50;87.21;97878.25;2567681;28;20102;-70
2021/12/07 03:06:20;;;;;;;36.63;15.38;;;;;;;-2.51;87.37;97878.22;2567739;28;20097;-70
2021/12/07 03:26:28;;;;;;;32.65;14.15;;;;;;;-2.29;87.15;97908.47;2567130;28;20062;-70
2021/12/07 03:27:44;;;;;;;34.28;13.77;;;;;;;-2.28;87.34;97911.88;2567511;28;20051;-70
2021/12/07 03:29:01;;;;;;;28.92;13.70;;;;;;;-2.26;87.25;97899.94;2567572;28;20465;-70
2021/12/07 03:30:17;;;;;;;37.22;13.18;;;;;;;-2.24;87.32;97905.94;2566771;28;20073;-70
2021/12/07 03:31:32;;;;;;;38.80;15.80;;;;;;;-2.24;87.06;97910.22;2567527;28;20074;-70
2021/12/07 03:32:49;;;;;;;36.45;14.95;;;;;;;-2.24;87.22;97911.06;2567586;28;20059;-70
2021/12/07 03:34:04;;;;;;;35.47;14.77;;;;;;;-2.22;86.89;97914.56;2567414;28;20481;-70
2021/12/07 03:35:20;;;;;;;36.25;15.32;;;;;;;-2.15;86.35;97911.22;2567665;28;20050;-70
2021/12/07 03:36:36;;;;;;;34.88;15.02;;;;;;;-2.13;86.25;97906.97;2567812;28;20050;-70
2021/12/07 03:37:51;;;;;;;34.33;14.65;;;;;;;-2.14;86.43;97907.81;2567247;28;20093;-70
2021/12/07 03:39:07;;;;;;;33.90;14.90;;;;;;;-2.13;86.55;97899.28;2567296;28;20109;-70
2021/12/07 03:40:24;;;;;;;36.20;15.57;;;;;;;-2.11;86.56;97909.56;2567253;28;20556;-70
2021/12/07 03:41:39;;;;;;;36.05;15.57;;;;;;;-2.09;86.77;97905.31;2567082;28;21035;-70
2021/12/07 03:42:55;;;;;;;35.38;15.07;;;;;;;-2.09;86.66;97902.75;2566989;28;20066;-70
2021/12/07 03:44:10;;;;;;;33.15;15.63;;;;;;;-2.07;87.04;97902.78;2566581;28;20406;-70
2021/12/07 03:45:26;;;;;;;33.40;14.88;;;;;;;-2.07;86.83;97902.78;2566724;28;20054;-70
2021/12/07 03:46:42;;;;;;;36.05;15.43;;;;;;;-2.07;86.84;97895.94;2567248;28;20055;-70
2021/12/07 03:47:59;;;;;;;37.83;15.77;;;;;;;-2.05;86.87;97901.09;2567118;28;20105;-70
2021/12/07 03:49:14;;;;;;;37.55;15.38;;;;;;;-2.04;87.06;97895.13;2567061;28;20047;-70
2021/12/07 03:50:30;;;;;;;32.50;14.52;;;;;;;-2.03;86.97;97889.16;2566942;28;20047;-70
2021/12/07 03:51:46;;;;;;;38.28;16.08;;;;;;;-2.03;86.78;97890.00;2567119;28;20226;-70
2021/12/07 03:53:02;;;;;;;37.55;15.15;;;;;;;-1.98;86.58;97895.19;2566918;28;20081;-70
2021/12/07 03:54:18;;;;;;;35.42;15.70;;;;;;;-1.89;86.55;97895.31;2567049;28;20046;-70
2021/12/07 03:55:33;;;;;;;35.70;14.32;;;;;;;-1.88;86.66;97899.63;2567222;28;20078;-70
2021/12/07 03:56:49;;;;;;;34.08;15.20;;;;;;;-1.88;86.52;97893.63;2567055;28;20145;-71
2021/12/07 03:58:05;;;;;;;35.10;16.35;;;;;;;-1.91;86.26;97894.44;2567259;28;20437;-70
2021/12/07 03:59:21;;;;;;;31.95;13.60;;;;;;;-1.92;86.38;97894.41;2566668;28;20090;-70
2021/12/07 04:00:40;;;;;;;33.38;14.68;;;;;;;-1.94;86.52;97893.53;2566485;28;20085;-70
2021/12/07 04:01:56;;;;;;;37.35;14.65;;;;;;;-1.97;86.71;97899.47;2556309;28;20490;-70
2021/12/07 04:03:14;;;;;;;36.33;15.82;;;;;;;-1.99;86.46;97893.47;2560290;28;20051;-70
2021/12/07 04:04:29;;;;;;;38.28;15.65;;;;;;;-1.97;86.50;97893.50;2565824;28;20536;-70
2021/12/07 04:05:49;;;;;;;34.65;15.23;;;;;;;-1.95;86.54;97891.81;2567275;28;20081;-70
2021/12/07 04:07:05;;;;;;;38.30;15.75;;;;;;;-1.95;86.76;97891.81;2566946;28;20051;-70
2021/12/07 04:08:26;;;;;;;36.88;15.43;;;;;;;-1.95;86.73;97886.69;2567087;28;20796;-70
2021/12/07 04:09:41;;;;;;;39.38;16.40;;;;;;;-1.95;86.70;97886.69;2567215;28;20643;-70
2021/12/07 04:10:57;;;;;;;40.45;15.98;;;;;;;-1.98;86.82;97877.22;2567475;28;20051;-70
2021/12/07 04:12:13;;;;;;;36.80;15.40;;;;;;;-2.00;86.76;97881.50;2567252;28;20349;-70
2021/12/07 04:13:29;;;;;;;38.20;15.13;;;;;;;-2.02;86.97;97884.06;2567321;28;20117;-70
2021/12/07 04:14:45;;;;;;;38.40;15.88;;;;;;;-2.03;86.95;97876.31;2566967;28;20442;-70
2021/12/07 04:16:01;;;;;;;38.60;16.23;;;;;;;-2.04;87.10;97872.03;2566915;28;20474;-70
2021/12/07 04:17:18;;;;;;;37.50;16.45;;;;;;;-1.98;86.96;97874.66;2567185;28;20533;-70
2021/12/07 04:18:35;;;;;;;39.47;16.27;;;;;;;-1.97;86.77;97873.81;2567180;28;20482;-69
2021/12/07 04:19:50;;;;;;;40.75;16.92;;;;;;;-1.96;86.76;97872.97;2566944;28;20051;-70
2021/12/07 04:21:06;;;;;;;37.30;15.60;;;;;;;-1.96;86.60;97877.28;2567133;28;20059;-70
2021/12/07 04:22:22;;;;;;;38.17;16.67;;;;;;;-1.97;86.70;97873.81;2567154;28;20865;-70
2021/12/07 04:23:38;;;;;;;35.25;15.00;;;;;;;-1.98;86.31;97877.22;2566766;28;20057;-70
2021/12/07 04:24:53;;;;;;;35.08;16.05;;;;;;;-1.97;86.53;97875.53;2566113;28;20497;-70
2021/12/07 04:26:12;;;;;;;39.35;15.63;;;;;;;-1.96;86.39;97872.97;2555911;29;20127;-70
2021/12/07 04:27:29;;;;;;;35.35;15.50;;;;;;;-1.93;86.63;97874.72;2560157;28;20062;-70
2021/12/07 04:28:45;;;;;;;40.17;17.05;;;;;;;-1.92;86.52;97874.75;2567094;28;20109;-70
2021/12/07 04:30:02;;;;;;;37.45;15.40;;;;;;;-1.91;86.49;97884.19;2566954;28;20449;-70
2021/12/07 04:31:19;;;;;;;40.50;17.48;;;;;;;-1.91;86.42;97871.34;2567525;28;20050;-70
2021/12/07 04:32:35;;;;;;;35.85;15.45;;;;;;;-1.88;86.40;97880.81;2569020;28;20085;-70
2021/12/07 04:33:51;;;;;;;36.67;15.90;;;;;;;-1.88;86.45;97876.53;2569155;28;20054;-70
2021/12/07 04:35:09;;;;;;;39.55;16.17;;;;;;;-1.88;86.36;97873.94;2569071;28;20429;-70
2021/12/07 04:36:24;;;;;;;35.63;15.73;;;;;;;-1.89;86.45;97874.78;2569280;28;20055;-70
2021/12/07 04:37:40;;;;;;;37.40;14.73;;;;;;;-1.88;86.38;97870.53;2568131;28;20140;-70
2021/12/07 04:38:56;;;;;;;39.80;16.13;;;;;;;-1.92;86.17;97879.03;2568286;28;20163;-70
2021/12/07 04:40:20;;;;;;;35.25;15.20;;;;;;;-1.99;86.44;97870.38;2567630;28;20059;-70
2021/12/07 04:41:36;;;;;;;33.58;14.60;;;;;;;-2.03;86.44;97876.31;2567359;28;20054;-70
2021/12/07 04:42:52;;;;;;;39.03;16.88;;;;;;;-2.06;86.67;97873.72;2567778;28;20197;-70
2021/12/07 04:44:08;;;;;;;35.92;14.75;;;;;;;-2.09;86.73;97881.38;2566855;28;20540;-70
2021/12/07 04:45:34;;;;;;;35.92;14.70;;;;;;;-2.07;86.78;97877.13;2567713;28;20055;-70
2021/12/07 04:47:20;;;;;;;34.05;14.52;;;;;;;-2.08;86.74;97873.69;2568231;28;20094;-70
2021/12/07 04:50:34;;;;;;;32.28;14.55;;;;;;;-2.09;86.81;97873.69;2568414;28;20054;-72
2021/12/07 04:57:58;;;;;;;37.92;15.68;;;;;;;-2.06;86.83;97876.28;2567949;28;20545;-71
2021/12/07 04:59:13;;;;;;;37.50;15.82;;;;;;;-2.06;86.93;97869.44;2568703;28;20086;-73
2021/12/07 05:00:29;;;;;;;35.95;15.35;;;;;;;-2.05;86.97;97878.00;2568722;28;20069;-71
2021/12/07 05:01:47;;;;;;;38.55;16.15;;;;;;;-2.04;86.96;97874.59;2568993;28;20485;-71
2021/12/07 05:03:07;;;;;;;42.03;17.35;;;;;;;-2.05;86.87;97880.56;2568024;28;20515;-70
2021/12/07 05:04:27;;;;;;;40.72;17.38;;;;;;;-2.04;86.87;97882.31;2557543;29;20125;-71
2021/12/07 05:05:47;;;;;;;43.00;17.10;;;;;;;-2.05;86.82;97886.56;2563017;28;20481;-71
2021/12/07 05:07:17;;;;;;;38.38;17.08;;;;;;;-2.05;86.79;97888.28;2568352;28;20421;-71
2021/12/07 05:12:30;;;;;;;40.30;16.88;;;;;;;-2.14;87.54;97865.94;2568330;28;20086;-71
2021/12/07 05:14:31;;;;;;;42.05;17.98;;;;;;;-2.16;87.39;97867.63;2568816;28;20083;-71
2021/12/07 05:15:56;;;;;;;40.20;16.35;;;;;;;-2.16;87.40;97875.31;2558063;28;20050;-70
2021/12/07 05:17:37;;;;;;;39.30;15.52;;;;;;;-2.14;87.30;97876.19;2568473;28;20400;-71
2021/12/07 05:38:53;;;;;;;38.25;15.15;;;;;;;-2.03;86.98;97886.59;2568584;28;20444;-71
2021/12/07 05:40:14;;;;;;;36.75;15.70;;;;;;;-2.02;86.83;97889.19;2568179;28;20047;-71
2021/12/07 05:41:29;;;;;;;36.95;16.30;;;;;;;-2.00;86.72;97890.06;2567702;28;20141;-71
2021/12/07 05:42:46;;;;;;;38.53;17.48;;;;;;;-2.00;87.02;97892.63;2568156;28;20464;-71
2021/12/07 05:44:03;;;;;;;47.22;18.90;;;;;;;-1.93;86.97;97888.44;2568256;28;20390;-71
2021/12/07 05:45:26;;;;;;;40.97;17.63;;;;;;;-1.88;87.01;97886.78;2567939;28;20055;-71
2021/12/07 05:46:41;;;;;;;44.42;18.45;;;;;;;-1.88;86.89;97889.34;2568253;28;20047;-70
2021/12/07 05:47:58;;;;;;;49.42;20.80;;;;;;;-1.87;86.87;97885.09;2557551;29;20078;-71
2021/12/07 05:49:13;;;;;;;50.45;21.70;;;;;;;-1.89;86.85;97887.63;2562157;28;20141;-70
2021/12/07 05:50:31;;;;;;;51.50;20.48;;;;;;;-1.91;86.93;97880.75;2568132;28;20078;-71
2021/12/07 05:51:47;;;;;;;52.03;19.42;;;;;;;-1.93;87.34;97879.88;2568289;28;20514;-71
2021/12/07 05:53:05;;;;;;;48.20;19.77;;;;;;;-1.94;87.39;97884.16;2568661;28;20074;-71
2021/12/07 05:54:20;;;;;;;45.50;17.27;;;;;;;-1.95;87.28;97882.44;2568112;28;20053;-71
2021/12/07 05:55:37;;;;;;;44.20;18.13;;;;;;;-1.93;87.38;97879.88;2568559;28;20066;-71
2021/12/07 05:56:52;;;;;;;39.03;16.85;;;;;;;-1.93;86.98;97878.19;2568599;28;20047;-71
2021/12/07 05:58:08;;;;;;;41.35;16.80;;;;;;;-1.94;86.99;97876.44;2568144;28;20252;-71
2021/12/07 05:59:24;;;;;;;42.42;17.17;;;;;;;-1.93;87.10;97872.16;2568308;28;20046;-71
2021/12/07 06:00:44;;;;;;;36.67;16.90;;;;;;;-1.91;86.94;97883.31;2568368;28;20051;-71
2021/12/07 06:01:59;;;;;;;42.47;17.77;;;;;;;-1.89;86.86;97879.94;2568294;28;20055;-71
2021/12/07 06:03:16;;;;;;;40.20;16.92;;;;;;;-1.89;86.83;97879.06;2566991;28;20493;-71
2021/12/07 06:04:33;;;;;;;37.42;16.45;;;;;;;-1.90;86.62;97875.66;2568346;28;20134;-71
2021/12/07 06:05:48;;;;;;;39.00;16.50;;;;;;;-1.91;86.79;97876.47;2568311;28;20062;-71
2021/12/07 06:07:04;;;;;;;40.05;17.38;;;;;;;-1.89;86.64;97874.78;2568498;28;20083;-71
2021/12/07 06:08:21;;;;;;;38.10;16.13;;;;;;;-1.89;86.75;97874.78;2568299;28;20124;-71
2021/12/07 06:09:37;;;;;;;42.28;18.20;;;;;;;-1.89;86.77;97872.22;2568258;28;20050;-71
2021/12/07 06:10:53;;;;;;;40.40;18.08;;;;;;;-1.86;86.61;97871.41;2568210;28;20050;-71
2021/12/07 06:12:08;;;;;;;41.15;18.13;;;;;;;-1.83;86.61;97870.56;2568216;28;20483;-71
2021/12/07 06:13:24;;;;;;;43.17;18.85;;;;;;;-1.83;86.57;97870.56;2568025;28;20055;-74
2021/12/07 06:14:44;;;;;;;38.90;17.83;;;;;;;-1.84;86.51;97869.72;2567925;28;20065;-74
2021/12/07 06:16:05;;;;;;;41.45;16.98;;;;;;;-1.87;86.68;97867.97;2568331;28;20085;-70
2021/12/07 06:17:21;;;;;;;41.45;18.42;;;;;;;-1.88;86.75;97875.69;2568483;28;20101;-71
2021/12/07 06:18:37;;;;;;;40.80;17.08;;;;;;;-1.92;86.68;97864.50;2567994;28;20051;-70
2021/12/07 06:19:53;;;;;;;45.45;18.10;;;;;;;-1.94;86.59;97866.19;2568008;28;20055;-70
2021/12/07 06:21:09;;;;;;;41.75;17.58;;;;;;;-2.00;86.81;97864.41;2567707;28;20058;-70
2021/12/07 06:22:24;;;;;;;39.03;17.23;;;;;;;-2.06;86.68;97851.47;2568290;28;20047;-71
2021/12/07 06:23:41;;;;;;;39.63;16.65;;;;;;;-2.11;86.81;97855.72;2567834;28;20089;-71
2021/12/07 06:24:57;;;;;;;41.00;17.13;;;;;;;-2.11;86.67;97855.72;2568079;28;20047;-71
2021/12/07 06:26:12;;;;;;;40.83;17.05;;;;;;;-2.19;86.65;97854.72;2568131;28;20525;-69
2021/12/07 06:27:28;;;;;;;42.97;17.90;;;;;;;-2.27;86.79;97860.63;2567916;28;20078;-69
2021/12/07 06:28:44;;;;;;;41.45;18.20;;;;;;;-2.34;86.72;97855.41;2568061;28;20482;-69
2021/12/07 06:30:00;;;;;;;40.58;17.92;;;;;;;-2.39;86.81;97862.13;2567981;28;20046;-69
2021/12/07 06:31:15;;;;;;;40.75;17.30;;;;;;;-2.45;87.02;97860.34;2567900;28;20486;-69
2021/12/07 06:32:31;;;;;;;38.75;16.13;;;;;;;-2.54;86.75;97855.09;2568194;28;20069;-70
2021/12/07 06:33:47;;;;;;;41.25;17.90;;;;;;;-2.58;86.82;97860.19;2567475;28;20050;-69
2021/12/07 06:35:04;;;;;;;41.20;17.48;;;;;;;-2.59;87.06;97857.59;2568158;28;20051;-70
2021/12/07 06:36:19;;;;;;;39.33;16.77;;;;;;;-2.64;87.20;97864.38;2568139;28;20051;-70
2021/12/07 06:37:35;;;;;;;43.83;17.88;;;;;;;-2.67;87.18;97859.16;2568126;28;20182;-70
2021/12/07 06:38:51;;;;;;;41.58;17.35;;;;;;;-2.70;87.64;97868.53;2567794;28;20055;-70
2021/12/07 06:40:10;;;;;;;46.03;17.08;;;;;;;-2.72;87.50;97862.53;2567516;28;20062;-70
2021/12/07 06:41:26;;;;;;;48.97;18.05;;;;;;;-2.73;87.81;97870.19;2567261;28;20425;-70
2021/12/07 06:42:41;;;;;;;47.17;17.90;;;;;;;-2.73;87.89;97865.06;2567576;28;20050;-72
2021/12/07 06:43:57;;;;;;;51.40;18.25;;;;;;;-2.73;88.30;97871.06;2567267;28;20086;-69
2021/12/07 06:45:12;;;;;;;46.10;18.50;;;;;;;-2.71;88.25;97877.06;2567706;28;20050;-72
2021/12/07 06:46:28;;;;;;;44.88;18.13;;;;;;;-2.70;87.94;97876.22;2567881;28;20089;-73
2021/12/07 06:47:44;;;;;;;42.85;17.63;;;;;;;-2.66;88.23;97876.25;2567768;28;20538;-70
2021/12/07 06:49:00;;;;;;;49.88;18.23;;;;;;;-2.63;88.40;97877.19;2567741;28;20057;-70
2021/12/07 06:50:15;;;;;;;40.33;17.23;;;;;;;-2.57;88.46;97871.28;2567755;28;20109;-70
2021/12/07 06:51:31;;;;;;;43.28;17.70;;;;;;;-2.54;88.42;97875.63;2568061;28;20137;-70
2021/12/07 06:52:46;;;;;;;44.33;17.83;;;;;;;-2.53;88.05;97872.22;2567943;28;20049;-70
2021/12/07 06:54:02;;;;;;;42.28;18.10;;;;;;;-2.49;88.26;97874.84;2567879;28;20050;-70
2021/12/07 06:55:19;;;;;;;43.10;18.45;;;;;;;-2.47;88.22;97875.72;2566163;28;20050;-70
2021/12/07 06:56:34;;;;;;;45.25;18.00;;;;;;;-2.45;88.00;97873.16;2557155;29;20047;-70
2021/12/07 06:57:50;;;;;;;44.50;18.40;;;;;;;-2.41;87.85;97868.13;2561530;28;20458;-70
2021/12/07 06:59:06;;;;;;;42.92;17.52;;;;;;;-2.36;87.94;97875.03;2567936;28;20059;-70
2021/12/07 07:00:22;;;;;;;39.80;16.40;;;;;;;-2.33;87.86;97867.38;2567438;28;20050;-70
2021/12/07 07:01:38;;;;;;;39.83;16.42;;;;;;;-2.32;88.02;97869.94;2567849;28;20057;-70
2021/12/07 07:02:53;;;;;;;43.22;17.33;;;;;;;-2.33;88.02;97868.22;2567826;28;20046;-70
2021/12/07 07:04:11;;;;;;;42.47;16.92;;;;;;;-2.31;88.06;97868.25;2567880;28;20058;-70
2021/12/07 07:05:27;;;;;;;44.95;17.60;;;;;;;-2.31;88.11;97875.94;2567749;28;20089;-70
2021/12/07 07:06:43;;;;;;;42.72;17.08;;;;;;;-2.27;87.85;97876.03;2567838;28;20489;-70
2021/12/07 07:07:58;;;;;;;44.60;17.85;;;;;;;-2.25;87.95;97876.03;2567477;28;20121;-70
2021/12/07 07:09:14;;;;;;;41.88;16.55;;;;;;;-2.21;87.55;97876.94;2567346;28;20046;-70
2021/12/07 07:10:30;;;;;;;45.03;17.27;;;;;;;-2.18;87.52;97876.97;2567681;28;20046;-70
2021/12/07 07:11:46;;;;;;;42.58;17.17;;;;;;;-2.16;87.46;97878.72;2567835;28;20466;-70
2021/12/07 07:13:01;;;;;;;44.13;16.92;;;;;;;-2.14;87.48;97884.72;2567546;28;20108;-70
2021/12/07 07:14:17;;;;;;;39.42;16.30;;;;;;;-2.11;87.41;97877.91;2567611;28;20050;-70
2021/12/07 07:15:33;;;;;;;42.00;16.20;;;;;;;-2.08;87.17;97880.53;2567692;28;20055;-70
2021/12/07 07:16:49;;;;;;;39.53;17.23;;;;;;;-2.06;86.92;97874.56;2567451;28;20458;-69
2021/12/07 07:18:04;;;;;;;40.78;16.33;;;;;;;-2.02;87.15;97883.19;2567580;28;20058;-70
2021/12/07 07:19:20;;;;;;;42.38;17.35;;;;;;;-2.00;86.80;97878.91;2567602;28;20058;-70
2021/12/07 07:20:36;;;;;;;36.05;16.67;;;;;;;-1.96;86.90;97882.41;2567582;28;20050;-70
2021/12/07 07:21:52;;;;;;;43.75;17.98;;;;;;;-1.94;86.74;97878.16;2567856;28;20046;-70
2021/12/07 07:23:07;;;;;;;40.45;17.63;;;;;;;-1.91;86.76;97881.63;2567228;28;20050;-70